sensor_id;sensor_type;location;lat;lon;timestamp;P1;durP1;ratioP1;P2;durP2;ratioP2
21639;SDS011;10981;45.462;10.974;2022-08-18T00:01:12;5.72;;;2.78;;
21639;SDS011;10981;45.462;10.974;2022-08-18T00:03:45;6.35;;;3.08;;
21639;SDS011;10981;45.462;10.974;2022-08-18T00:06:25;7.25;;;3.88;;
21639;SDS011;10981;45.462;10.974;2022-08-18T00:08:56;6.32;;;3.15;;
21639;SDS011;10981;45.462;10.974;2022-08-18T00:11:27;3.78;;;2.58;;
21639;SDS011;10981;45.462;10.974;2022-08-18T00:14:15;4.82;;;2.90;;
21639;SDS011;10981;45.462;10.974;2022-08-18T00:16:49;8.85;;;3.67;;
21639;SDS011;10981;45.462;10.974;2022-08-18T00:19:20;5.03;;;2.75;;
21639;SDS011;10981;45.462;10.974;2022-08-18T00:22:11;6.13;;;4.20;;
21639;SDS011;10981;45.462;10.974;2022-08-18T00:24:43;8.98;;;3.03;;
21639;SDS011;10981;45.462;10.974;2022-08-18T00:27:17;4.63;;;2.67;;
21639;SDS011;10981;45.462;10.974;2022-08-18T00:29:50;9.90;;;3.83;;
21639;SDS011;10981;45.462;10.974;2022-08-18T00:32:21;9.20;;;3.28;;
21639;SDS011;10981;45.462;10.974;2022-08-18T00:35:19;9.65;;;2.75;;
21639;SDS011;10981;45.462;10.974;2022-08-18T00:37:55;11.00;;;4.55;;
21639;SDS011;10981;45.462;10.974;2022-08-18T00:40:30;11.20;;;5.28;;
21639;SDS011;10981;45.462;10.974;2022-08-18T00:43:11;18.95;;;4.93;;
21639;SDS011;10981;45.462;10.974;2022-08-18T00:45:47;9.85;;;4.40;;
21639;SDS011;10981;45.462;10.974;2022-08-18T00:48:15;15.07;;;4.93;;
21639;SDS011;10981;45.462;10.974;2022-08-18T00:50:53;15.30;;;4.68;;
21639;SDS011;10981;45.462;10.974;2022-08-18T00:53:41;19.17;;;5.07;;
21639;SDS011;10981;45.462;10.974;2022-08-18T00:56:18;15.85;;;6.43;;
21639;SDS011;10981;45.462;10.974;2022-08-18T00:59:02;13.90;;;4.88;;
21639;SDS011;10981;45.462;10.974;2022-08-18T01:01:36;14.18;;;5.90;;
21639;SDS011;10981;45.462;10.974;2022-08-18T01:04:08;17.58;;;5.20;;
21639;SDS011;10981;45.462;10.974;2022-08-18T01:06:45;18.08;;;5.03;;
21639;SDS011;10981;45.462;10.974;2022-08-18T01:09:24;10.20;;;3.28;;
21639;SDS011;10981;45.462;10.974;2022-08-18T01:11:53;10.15;;;2.90;;
21639;SDS011;10981;45.462;10.974;2022-08-18T01:14:22;9.20;;;2.65;;
21639;SDS011;10981;45.462;10.974;2022-08-18T01:16:51;10.75;;;3.05;;
21639;SDS011;10981;45.462;10.974;2022-08-18T01:19:37;8.43;;;3.90;;
21639;SDS011;10981;45.462;10.974;2022-08-18T01:22:26;8.07;;;3.50;;
21639;SDS011;10981;45.462;10.974;2022-08-18T01:25:02;4.97;;;3.13;;
21639;SDS011;10981;45.462;10.974;2022-08-18T01:27:52;10.50;;;3.20;;
21639;SDS011;10981;45.462;10.974;2022-08-18T01:30:27;7.45;;;3.75;;
21639;SDS011;10981;45.462;10.974;2022-08-18T01:32:57;6.38;;;3.85;;
21639;SDS011;10981;45.462;10.974;2022-08-18T01:35:26;8.07;;;3.17;;
21639;SDS011;10981;45.462;10.974;2022-08-18T01:38:04;8.75;;;3.85;;
21639;SDS011;10981;45.462;10.974;2022-08-18T01:40:32;7.70;;;4.00;;
21639;SDS011;10981;45.462;10.974;2022-08-18T01:43:20;5.13;;;3.88;;
21639;SDS011;10981;45.462;10.974;2022-08-18T01:45:49;6.45;;;3.70;;
21639;SDS011;10981;45.462;10.974;2022-08-18T01:48:17;6.03;;;3.17;;
21639;SDS011;10981;45.462;10.974;2022-08-18T01:50:45;9.52;;;3.95;;
21639;SDS011;10981;45.462;10.974;2022-08-18T01:53:15;8.95;;;4.40;;
21639;SDS011;10981;45.462;10.974;2022-08-18T01:55:45;6.40;;;2.85;;
21639;SDS011;10981;45.462;10.974;2022-08-18T01:58:13;7.68;;;3.63;;
21639;SDS011;10981;45.462;10.974;2022-08-18T02:00:41;7.03;;;3.05;;
21639;SDS011;10981;45.462;10.974;2022-08-18T02:03:10;7.28;;;3.00;;
21639;SDS011;10981;45.462;10.974;2022-08-18T02:05:48;4.97;;;2.90;;
21639;SDS011;10981;45.462;10.974;2022-08-18T02:08:17;6.00;;;2.72;;
21639;SDS011;10981;45.462;10.974;2022-08-18T02:10:45;8.13;;;3.25;;
21639;SDS011;10981;45.462;10.974;2022-08-18T02:13:13;6.18;;;2.70;;
21639;SDS011;10981;45.462;10.974;2022-08-18T02:15:42;8.45;;;2.60;;
21639;SDS011;10981;45.462;10.974;2022-08-18T02:18:17;6.95;;;3.13;;
21639;SDS011;10981;45.462;10.974;2022-08-18T02:21:09;3.97;;;2.70;;
21639;SDS011;10981;45.462;10.974;2022-08-18T02:23:40;6.65;;;3.30;;
21639;SDS011;10981;45.462;10.974;2022-08-18T02:26:19;5.40;;;3.13;;
21639;SDS011;10981;45.462;10.974;2022-08-18T02:28:50;4.32;;;2.83;;
21639;SDS011;10981;45.462;10.974;2022-08-18T02:31:20;6.68;;;3.42;;
21639;SDS011;10981;45.462;10.974;2022-08-18T02:33:50;7.97;;;3.75;;
21639;SDS011;10981;45.462;10.974;2022-08-18T02:36:19;8.05;;;3.78;;
21639;SDS011;10981;45.462;10.974;2022-08-18T02:38:51;13.63;;;3.67;;
21639;SDS011;10981;45.462;10.974;2022-08-18T02:41:26;12.68;;;4.43;;
21639;SDS011;10981;45.462;10.974;2022-08-18T02:43:59;4.93;;;4.05;;
21639;SDS011;10981;45.462;10.974;2022-08-18T02:46:27;9.93;;;3.83;;
21639;SDS011;10981;45.462;10.974;2022-08-18T02:49:00;8.20;;;5.03;;
21639;SDS011;10981;45.462;10.974;2022-08-18T02:51:29;10.93;;;6.22;;
21639;SDS011;10981;45.462;10.974;2022-08-18T02:53:57;11.07;;;6.50;;
21639;SDS011;10981;45.462;10.974;2022-08-18T02:56:27;15.10;;;9.77;;
21639;SDS011;10981;45.462;10.974;2022-08-18T02:59:09;23.65;;;11.13;;
21639;SDS011;10981;45.462;10.974;2022-08-18T03:01:42;35.03;;;18.37;;
21639;SDS011;10981;45.462;10.974;2022-08-18T03:04:12;29.70;;;18.38;;
21639;SDS011;10981;45.462;10.974;2022-08-18T03:06:42;35.78;;;19.02;;
21639;SDS011;10981;45.462;10.974;2022-08-18T03:09:12;42.13;;;17.65;;
21639;SDS011;10981;45.462;10.974;2022-08-18T03:11:42;42.75;;;18.77;;
21639;SDS011;10981;45.462;10.974;2022-08-18T03:14:11;29.92;;;18.23;;
21639;SDS011;10981;45.462;10.974;2022-08-18T03:16:41;30.67;;;17.30;;
21639;SDS011;10981;45.462;10.974;2022-08-18T03:19:22;27.27;;;13.55;;
21639;SDS011;10981;45.462;10.974;2022-08-18T03:21:52;13.98;;;8.52;;
21639;SDS011;10981;45.462;10.974;2022-08-18T03:24:25;20.65;;;7.82;;
21639;SDS011;10981;45.462;10.974;2022-08-18T03:26:55;14.45;;;5.88;;
21639;SDS011;10981;45.462;10.974;2022-08-18T03:29:23;11.73;;;6.00;;
21639;SDS011;10981;45.462;10.974;2022-08-18T03:32:01;12.38;;;6.20;;
21639;SDS011;10981;45.462;10.974;2022-08-18T03:34:33;9.90;;;6.15;;
21639;SDS011;10981;45.462;10.974;2022-08-18T03:37:01;10.27;;;6.22;;
21639;SDS011;10981;45.462;10.974;2022-08-18T03:39:29;9.77;;;5.63;;
21639;SDS011;10981;45.462;10.974;2022-08-18T03:41:58;12.32;;;5.90;;
21639;SDS011;10981;45.462;10.974;2022-08-18T03:44:29;7.03;;;4.10;;
21639;SDS011;10981;45.462;10.974;2022-08-18T03:49:30;10.30;;;3.75;;
21639;SDS011;10981;45.462;10.974;2022-08-18T03:52:00;3.47;;;2.03;;
21639;SDS011;10981;45.462;10.974;2022-08-18T03:54:29;6.90;;;3.10;;
21639;SDS011;10981;45.462;10.974;2022-08-18T03:56:58;2.58;;;1.70;;
21639;SDS011;10981;45.462;10.974;2022-08-18T03:59:27;6.68;;;2.10;;
21639;SDS011;10981;45.462;10.974;2022-08-18T04:01:58;4.47;;;2.25;;
21639;SDS011;10981;45.462;10.974;2022-08-18T04:04:28;4.03;;;2.28;;
21639;SDS011;10981;45.462;10.974;2022-08-18T04:07:02;2.97;;;0.90;;
21639;SDS011;10981;45.462;10.974;2022-08-18T04:09:36;2.85;;;1.67;;
21639;SDS011;10981;45.462;10.974;2022-08-18T04:12:06;4.95;;;1.52;;
21639;SDS011;10981;45.462;10.974;2022-08-18T04:14:43;4.75;;;1.65;;
21639;SDS011;10981;45.462;10.974;2022-08-18T04:17:16;4.57;;;1.60;;
21639;SDS011;10981;45.462;10.974;2022-08-18T04:19:51;3.28;;;1.42;;
21639;SDS011;10981;45.462;10.974;2022-08-18T04:22:20;5.40;;;2.00;;
21639;SDS011;10981;45.462;10.974;2022-08-18T04:24:50;4.00;;;1.25;;
21639;SDS011;10981;45.462;10.974;2022-08-18T04:27:20;4.65;;;1.20;;
21639;SDS011;10981;45.462;10.974;2022-08-18T04:29:49;2.83;;;1.30;;
21639;SDS011;10981;45.462;10.974;2022-08-18T04:32:17;2.03;;;1.08;;
21639;SDS011;10981;45.462;10.974;2022-08-18T04:34:45;1.48;;;0.80;;
21639;SDS011;10981;45.462;10.974;2022-08-18T04:37:14;2.55;;;0.77;;
21639;SDS011;10981;45.462;10.974;2022-08-18T04:39:43;3.35;;;1.90;;
21639;SDS011;10981;45.462;10.974;2022-08-18T04:42:12;2.88;;;1.10;;
21639;SDS011;10981;45.462;10.974;2022-08-18T04:44:43;2.55;;;1.02;;
21639;SDS011;10981;45.462;10.974;2022-08-18T04:47:12;2.53;;;1.10;;
21639;SDS011;10981;45.462;10.974;2022-08-18T04:49:40;3.20;;;0.98;;
21639;SDS011;10981;45.462;10.974;2022-08-18T04:52:09;4.50;;;1.00;;
21639;SDS011;10981;45.462;10.974;2022-08-18T04:55:07;2.97;;;1.50;;
21639;SDS011;10981;45.462;10.974;2022-08-18T04:57:36;4.35;;;1.10;;
21639;SDS011;10981;45.462;10.974;2022-08-18T05:00:05;2.28;;;1.30;;
21639;SDS011;10981;45.462;10.974;2022-08-18T05:02:36;2.65;;;1.20;;
21639;SDS011;10981;45.462;10.974;2022-08-18T05:05:04;2.97;;;1.77;;
21639;SDS011;10981;45.462;10.974;2022-08-18T05:07:36;3.55;;;1.30;;
21639;SDS011;10981;45.462;10.974;2022-08-18T05:10:12;3.22;;;1.25;;
21639;SDS011;10981;45.462;10.974;2022-08-18T05:12:45;4.45;;;1.90;;
21639;SDS011;10981;45.462;10.974;2022-08-18T05:15:14;7.13;;;2.10;;
21639;SDS011;10981;45.462;10.974;2022-08-18T05:17:44;5.40;;;1.52;;
21639;SDS011;10981;45.462;10.974;2022-08-18T05:20:17;4.18;;;1.70;;
21639;SDS011;10981;45.462;10.974;2022-08-18T05:22:46;3.15;;;1.77;;
21639;SDS011;10981;45.462;10.974;2022-08-18T05:25:14;3.42;;;1.40;;
21639;SDS011;10981;45.462;10.974;2022-08-18T05:27:44;5.78;;;1.40;;
21639;SDS011;10981;45.462;10.974;2022-08-18T05:30:12;2.70;;;1.73;;
21639;SDS011;10981;45.462;10.974;2022-08-18T05:32:42;5.00;;;2.05;;
21639;SDS011;10981;45.462;10.974;2022-08-18T05:35:21;3.38;;;1.90;;
21639;SDS011;10981;45.462;10.974;2022-08-18T05:40:24;3.65;;;1.63;;
21639;SDS011;10981;45.462;10.974;2022-08-18T05:42:52;4.22;;;3.00;;
21639;SDS011;10981;45.462;10.974;2022-08-18T05:45:23;10.02;;;2.65;;
21639;SDS011;10981;45.462;10.974;2022-08-18T05:47:56;7.93;;;3.05;;
21639;SDS011;10981;45.462;10.974;2022-08-18T05:50:28;8.18;;;2.92;;
21639;SDS011;10981;45.462;10.974;2022-08-18T05:53:10;5.53;;;1.88;;
21639;SDS011;10981;45.462;10.974;2022-08-18T05:55:58;3.50;;;1.60;;
21639;SDS011;10981;45.462;10.974;2022-08-18T05:58:50;4.88;;;1.83;;
21639;SDS011;10981;45.462;10.974;2022-08-18T06:01:25;5.15;;;1.50;;
21639;SDS011;10981;45.462;10.974;2022-08-18T06:04:01;5.53;;;1.70;;
21639;SDS011;10981;45.462;10.974;2022-08-18T06:06:54;8.45;;;1.80;;
21639;SDS011;10981;45.462;10.974;2022-08-18T06:09:32;4.22;;;1.63;;
21639;SDS011;10981;45.462;10.974;2022-08-18T06:15:23;3.80;;;1.80;;
21639;SDS011;10981;45.462;10.974;2022-08-18T06:40:31;3.33;;;1.60;;
21639;SDS011;10981;45.462;10.974;2022-08-18T06:42:59;7.32;;;2.00;;
21639;SDS011;10981;45.462;10.974;2022-08-18T06:45:30;5.72;;;2.95;;
21639;SDS011;10981;45.462;10.974;2022-08-18T06:50:49;10.00;;;5.25;;
21639;SDS011;10981;45.462;10.974;2022-08-18T06:53:48;5.50;;;2.97;;
21639;SDS011;10981;45.462;10.974;2022-08-18T06:57:07;7.50;;;1.50;;
21639;SDS011;10981;45.462;10.974;2022-08-18T07:01:54;2.90;;;2.05;;
21639;SDS011;10981;45.462;10.974;2022-08-18T07:04:36;5.63;;;2.15;;
21639;SDS011;10981;45.462;10.974;2022-08-18T07:09:47;5.57;;;1.95;;
21639;SDS011;10981;45.462;10.974;2022-08-18T07:12:20;4.40;;;2.08;;
21639;SDS011;10981;45.462;10.974;2022-08-18T07:14:59;9.43;;;2.55;;
21639;SDS011;10981;45.462;10.974;2022-08-18T07:17:31;8.95;;;2.72;;
21639;SDS011;10981;45.462;10.974;2022-08-18T07:22:54;10.30;;;4.43;;
21639;SDS011;10981;45.462;10.974;2022-08-18T07:25:30;7.97;;;4.15;;
21639;SDS011;10981;45.462;10.974;2022-08-18T07:31:07;19.30;;;8.68;;
21639;SDS011;10981;45.462;10.974;2022-08-18T07:33:48;18.65;;;10.45;;
21639;SDS011;10981;45.462;10.974;2022-08-18T07:36:37;24.45;;;13.02;;
21639;SDS011;10981;45.462;10.974;2022-08-18T07:39:32;17.73;;;11.82;;
21639;SDS011;10981;45.462;10.974;2022-08-18T07:45:41;19.95;;;12.40;;
21639;SDS011;10981;45.462;10.974;2022-08-18T07:48:13;16.67;;;10.10;;
21639;SDS011;10981;45.462;10.974;2022-08-18T07:54:07;15.32;;;7.47;;
21639;SDS011;10981;45.462;10.974;2022-08-18T07:57:05;12.32;;;6.40;;
21639;SDS011;10981;45.462;10.974;2022-08-18T07:59:56;9.75;;;4.20;;
21639;SDS011;10981;45.462;10.974;2022-08-18T08:10:48;7.28;;;2.53;;
21639;SDS011;10981;45.462;10.974;2022-08-18T08:16:47;7.38;;;2.60;;
21639;SDS011;10981;45.462;10.974;2022-08-18T08:22:39;7.05;;;2.33;;
21639;SDS011;10981;45.462;10.974;2022-08-18T08:31:08;6.68;;;1.92;;
21639;SDS011;10981;45.462;10.974;2022-08-18T08:34:19;4.43;;;1.67;;
21639;SDS011;10981;45.462;10.974;2022-08-18T08:37:15;5.60;;;1.65;;
21639;SDS011;10981;45.462;10.974;2022-08-18T08:39:55;3.65;;;1.40;;
21639;SDS011;10981;45.462;10.974;2022-08-18T08:42:41;2.15;;;0.90;;
21639;SDS011;10981;45.462;10.974;2022-08-18T08:45:24;3.20;;;1.20;;
21639;SDS011;10981;45.462;10.974;2022-08-18T08:50:44;2.53;;;0.70;;
21639;SDS011;10981;45.462;10.974;2022-08-18T08:53:55;6.00;;;1.30;;
21639;SDS011;10981;45.462;10.974;2022-08-18T08:56:27;5.93;;;1.50;;
21639;SDS011;10981;45.462;10.974;2022-08-18T08:59:04;5.10;;;1.15;;
21639;SDS011;10981;45.462;10.974;2022-08-18T09:16:26;6.40;;;0.80;;
21639;SDS011;10981;45.462;10.974;2022-08-18T09:28:09;6.38;;;1.00;;
21639;SDS011;10981;45.462;10.974;2022-08-18T09:36:15;1.67;;;0.95;;
21639;SDS011;10981;45.462;10.974;2022-08-18T09:42:11;1.67;;;0.90;;
21639;SDS011;10981;45.462;10.974;2022-08-18T09:44:57;2.38;;;1.23;;
21639;SDS011;10981;45.462;10.974;2022-08-18T09:52:58;2.50;;;1.08;;
21639;SDS011;10981;45.462;10.974;2022-08-18T09:56:00;3.42;;;1.35;;
21639;SDS011;10981;45.462;10.974;2022-08-18T10:01:20;2.63;;;1.40;;
21639;SDS011;10981;45.462;10.974;2022-08-18T10:07:17;9.82;;;2.85;;
21639;SDS011;10981;45.462;10.974;2022-08-18T10:13:31;4.47;;;1.50;;
21639;SDS011;10981;45.462;10.974;2022-08-18T10:16:24;3.20;;;1.30;;
21639;SDS011;10981;45.462;10.974;2022-08-18T10:22:41;3.05;;;1.40;;
21639;SDS011;10981;45.462;10.974;2022-08-18T10:25:13;5.22;;;1.52;;
21639;SDS011;10981;45.462;10.974;2022-08-18T10:28:09;6.45;;;1.55;;
21639;SDS011;10981;45.462;10.974;2022-08-18T10:31:02;7.25;;;1.90;;
21639;SDS011;10981;45.462;10.974;2022-08-18T10:34:22;6.03;;;2.00;;
21639;SDS011;10981;45.462;10.974;2022-08-18T10:36:47;10.70;;;2.58;;
21639;SDS011;10981;45.462;10.974;2022-08-18T10:39:20;11.00;;;2.60;;
21639;SDS011;10981;45.462;10.974;2022-08-18T10:45:02;6.32;;;1.45;;
21639;SDS011;10981;45.462;10.974;2022-08-18T10:53:44;2.15;;;0.88;;
21639;SDS011;10981;45.462;10.974;2022-08-18T10:56:23;4.65;;;0.90;;
21639;SDS011;10981;45.462;10.974;2022-08-18T11:04:36;2.35;;;0.70;;
21639;SDS011;10981;45.462;10.974;2022-08-18T11:07:28;2.13;;;0.88;;
21639;SDS011;10981;45.462;10.974;2022-08-18T11:10:20;4.93;;;1.63;;
21639;SDS011;10981;45.462;10.974;2022-08-18T11:16:05;0.50;;;0.47;;
21639;SDS011;10981;45.462;10.974;2022-08-18T11:18:50;1.08;;;0.55;;
21639;SDS011;10981;45.462;10.974;2022-08-18T11:21:45;2.22;;;0.60;;
21639;SDS011;10981;45.462;10.974;2022-08-18T11:24:19;3.20;;;1.25;;
21639;SDS011;10981;45.462;10.974;2022-08-18T11:29:29;7.25;;;1.85;;
21639;SDS011;10981;45.462;10.974;2022-08-18T11:32:06;3.35;;;1.15;;
21639;SDS011;10981;45.462;10.974;2022-08-18T11:34:47;5.75;;;1.35;;
21639;SDS011;10981;45.462;10.974;2022-08-18T11:40:39;3.53;;;1.80;;
21639;SDS011;10981;45.462;10.974;2022-08-18T11:43:31;1.55;;;0.90;;
21639;SDS011;10981;45.462;10.974;2022-08-18T11:48:58;1.55;;;1.30;;
21639;SDS011;10981;45.462;10.974;2022-08-18T11:51:56;6.05;;;1.63;;
21639;SDS011;10981;45.462;10.974;2022-08-18T11:54:49;5.10;;;2.17;;
21639;SDS011;10981;45.462;10.974;2022-08-18T11:57:30;4.15;;;2.15;;
21639;SDS011;10981;45.462;10.974;2022-08-18T12:06:08;3.10;;;2.38;;
21639;SDS011;10981;45.462;10.974;2022-08-18T12:12:22;5.47;;;2.35;;
21639;SDS011;10981;45.462;10.974;2022-08-18T12:17:30;5.13;;;2.63;;
21639;SDS011;10981;45.462;10.974;2022-08-18T12:19:58;3.65;;;2.55;;
21639;SDS011;10981;45.462;10.974;2022-08-18T12:22:28;2.92;;;2.72;;
21639;SDS011;10981;45.462;10.974;2022-08-18T12:24:57;4.63;;;2.60;;
21639;SDS011;10981;45.462;10.974;2022-08-18T12:27:27;4.47;;;2.17;;
21639;SDS011;10981;45.462;10.974;2022-08-18T12:29:58;5.72;;;2.75;;
21639;SDS011;10981;45.462;10.974;2022-08-18T12:32:30;7.88;;;2.53;;
21639;SDS011;10981;45.462;10.974;2022-08-18T12:35:17;4.65;;;2.50;;
21639;SDS011;10981;45.462;10.974;2022-08-18T12:37:48;8.13;;;3.05;;
21639;SDS011;10981;45.462;10.974;2022-08-18T12:40:37;6.90;;;3.00;;
21639;SDS011;10981;45.462;10.974;2022-08-18T12:43:06;6.72;;;3.80;;
21639;SDS011;10981;45.462;10.974;2022-08-18T12:45:35;7.03;;;3.53;;
21639;SDS011;10981;45.462;10.974;2022-08-18T12:48:04;7.95;;;4.30;;
21639;SDS011;10981;45.462;10.974;2022-08-18T12:50:34;5.35;;;3.45;;
21639;SDS011;10981;45.462;10.974;2022-08-18T12:53:21;6.03;;;3.42;;
21639;SDS011;10981;45.462;10.974;2022-08-18T12:56:17;9.10;;;3.45;;
21639;SDS011;10981;45.462;10.974;2022-08-18T12:58:51;6.38;;;3.15;;
21639;SDS011;10981;45.462;10.974;2022-08-18T13:01:24;5.68;;;3.38;;
21639;SDS011;10981;45.462;10.974;2022-08-18T13:03:53;5.38;;;3.08;;
21639;SDS011;10981;45.462;10.974;2022-08-18T13:06:47;6.05;;;3.20;;
21639;SDS011;10981;45.462;10.974;2022-08-18T13:09:31;5.53;;;2.90;;
21639;SDS011;10981;45.462;10.974;2022-08-18T13:12:22;4.60;;;2.75;;
21639;SDS011;10981;45.462;10.974;2022-08-18T13:14:52;5.88;;;3.38;;
21639;SDS011;10981;45.462;10.974;2022-08-18T13:17:21;4.75;;;3.15;;
21639;SDS011;10981;45.462;10.974;2022-08-18T13:20:09;6.20;;;3.17;;
21639;SDS011;10981;45.462;10.974;2022-08-18T13:22:40;7.05;;;3.22;;
21639;SDS011;10981;45.462;10.974;2022-08-18T13:25:10;5.20;;;2.72;;
21639;SDS011;10981;45.462;10.974;2022-08-18T13:27:59;4.78;;;3.92;;
21639;SDS011;10981;45.462;10.974;2022-08-18T13:30:28;4.82;;;2.88;;
21639;SDS011;10981;45.462;10.974;2022-08-18T13:32:59;7.03;;;3.13;;
21639;SDS011;10981;45.462;10.974;2022-08-18T13:35:48;3.15;;;2.38;;
21639;SDS011;10981;45.462;10.974;2022-08-18T13:38:21;7.97;;;2.70;;
21639;SDS011;10981;45.462;10.974;2022-08-18T13:40:57;7.38;;;2.78;;
21639;SDS011;10981;45.462;10.974;2022-08-18T13:43:33;8.25;;;3.15;;
21639;SDS011;10981;45.462;10.974;2022-08-18T13:46:05;7.20;;;2.95;;
21639;SDS011;10981;45.462;10.974;2022-08-18T13:48:36;5.82;;;2.45;;
21639;SDS011;10981;45.462;10.974;2022-08-18T13:51:08;3.95;;;2.28;;
21639;SDS011;10981;45.462;10.974;2022-08-18T13:53:40;4.93;;;2.43;;
21639;SDS011;10981;45.462;10.974;2022-08-18T13:56:23;5.53;;;3.28;;
21639;SDS011;10981;45.462;10.974;2022-08-18T13:58:57;3.67;;;1.73;;
21639;SDS011;10981;45.462;10.974;2022-08-18T14:01:26;5.78;;;2.08;;
21639;SDS011;10981;45.462;10.974;2022-08-18T14:04:14;7.18;;;2.13;;
21639;SDS011;10981;45.462;10.974;2022-08-18T14:06:50;5.93;;;2.33;;
21639;SDS011;10981;45.462;10.974;2022-08-18T14:09:25;7.20;;;2.17;;
21639;SDS011;10981;45.462;10.974;2022-08-18T14:12:05;7.68;;;2.53;;
21639;SDS011;10981;45.462;10.974;2022-08-18T14:14:52;4.93;;;1.85;;
21639;SDS011;10981;45.462;10.974;2022-08-18T14:17:23;3.45;;;2.15;;
21639;SDS011;10981;45.462;10.974;2022-08-18T14:19:52;4.07;;;2.03;;
21639;SDS011;10981;45.462;10.974;2022-08-18T14:22:49;5.93;;;2.08;;
21639;SDS011;10981;45.462;10.974;2022-08-18T14:25:37;5.65;;;2.08;;
21639;SDS011;10981;45.462;10.974;2022-08-18T14:28:26;7.88;;;1.80;;
21639;SDS011;10981;45.462;10.974;2022-08-18T14:31:00;5.65;;;2.20;;
21639;SDS011;10981;45.462;10.974;2022-08-18T14:33:33;8.65;;;1.83;;
21639;SDS011;10981;45.462;10.974;2022-08-18T14:36:18;5.13;;;1.58;;
21639;SDS011;10981;45.462;10.974;2022-08-18T14:38:57;4.10;;;1.48;;
21639;SDS011;10981;45.462;10.974;2022-08-18T14:41:26;5.72;;;1.45;;
21639;SDS011;10981;45.462;10.974;2022-08-18T14:43:56;1.83;;;1.23;;
21639;SDS011;10981;45.462;10.974;2022-08-18T14:46:41;3.95;;;1.50;;
21639;SDS011;10981;45.462;10.974;2022-08-18T14:49:21;10.65;;;2.10;;
21639;SDS011;10981;45.462;10.974;2022-08-18T14:51:58;4.38;;;1.58;;
21639;SDS011;10981;45.462;10.974;2022-08-18T14:54:28;4.03;;;1.83;;
21639;SDS011;10981;45.462;10.974;2022-08-18T14:56:58;7.25;;;1.83;;
21639;SDS011;10981;45.462;10.974;2022-08-18T14:59:28;5.63;;;1.92;;
21639;SDS011;10981;45.462;10.974;2022-08-18T15:02:04;3.05;;;1.50;;
21639;SDS011;10981;45.462;10.974;2022-08-18T15:04:39;3.80;;;1.70;;
21639;SDS011;10981;45.462;10.974;2022-08-18T15:07:22;6.70;;;1.92;;
21639;SDS011;10981;45.462;10.974;2022-08-18T15:09:51;2.80;;;1.40;;
21639;SDS011;10981;45.462;10.974;2022-08-18T15:12:40;3.78;;;1.90;;
21639;SDS011;10981;45.462;10.974;2022-08-18T15:15:10;8.07;;;1.60;;
21639;SDS011;10981;45.462;10.974;2022-08-18T15:17:44;4.13;;;1.95;;
21639;SDS011;10981;45.462;10.974;2022-08-18T15:20:18;3.72;;;1.20;;
21639;SDS011;10981;45.462;10.974;2022-08-18T15:22:58;4.00;;;1.73;;
21639;SDS011;10981;45.462;10.974;2022-08-18T15:25:54;6.50;;;1.50;;
21639;SDS011;10981;45.462;10.974;2022-08-18T15:28:25;6.50;;;1.42;;
21639;SDS011;10981;45.462;10.974;2022-08-18T15:30:53;2.35;;;1.10;;
21639;SDS011;10981;45.462;10.974;2022-08-18T15:33:42;5.78;;;1.30;;
21639;SDS011;10981;45.462;10.974;2022-08-18T15:36:17;4.72;;;1.50;;
21639;SDS011;10981;45.462;10.974;2022-08-18T15:38:55;3.22;;;1.65;;
21639;SDS011;10981;45.462;10.974;2022-08-18T15:41:34;4.88;;;1.52;;
21639;SDS011;10981;45.462;10.974;2022-08-18T15:44:16;3.78;;;1.30;;
21639;SDS011;10981;45.462;10.974;2022-08-18T15:46:45;4.65;;;1.00;;
21639;SDS011;10981;45.462;10.974;2022-08-18T15:49:19;3.90;;;1.30;;
21639;SDS011;10981;45.462;10.974;2022-08-18T15:51:49;2.03;;;0.90;;
21639;SDS011;10981;45.462;10.974;2022-08-18T15:54:18;7.95;;;1.70;;
21639;SDS011;10981;45.462;10.974;2022-08-18T15:56:50;2.78;;;1.15;;
21639;SDS011;10981;45.462;10.974;2022-08-18T15:59:25;2.55;;;1.10;;
21639;SDS011;10981;45.462;10.974;2022-08-18T16:02:06;6.18;;;1.42;;
21639;SDS011;10981;45.462;10.974;2022-08-18T16:04:44;6.75;;;1.35;;
21639;SDS011;10981;45.462;10.974;2022-08-18T16:07:12;4.78;;;1.38;;
21639;SDS011;10981;45.462;10.974;2022-08-18T16:09:51;2.10;;;1.08;;
21639;SDS011;10981;45.462;10.974;2022-08-18T16:12:19;5.95;;;1.30;;
21639;SDS011;10981;45.462;10.974;2022-08-18T16:14:47;3.22;;;1.20;;
21639;SDS011;10981;45.462;10.974;2022-08-18T16:17:18;2.58;;;1.30;;
21639;SDS011;10981;45.462;10.974;2022-08-18T16:19:57;3.90;;;1.42;;
21639;SDS011;10981;45.462;10.974;2022-08-18T16:22:27;4.55;;;1.23;;
21639;SDS011;10981;45.462;10.974;2022-08-18T16:24:55;3.65;;;1.40;;
21639;SDS011;10981;45.462;10.974;2022-08-18T16:27:23;5.72;;;1.30;;
21639;SDS011;10981;45.462;10.974;2022-08-18T16:29:54;2.53;;;1.20;;
21639;SDS011;10981;45.462;10.974;2022-08-18T16:32:23;5.18;;;1.15;;
21639;SDS011;10981;45.462;10.974;2022-08-18T16:34:51;5.82;;;1.65;;
21639;SDS011;10981;45.462;10.974;2022-08-18T16:37:20;2.65;;;1.40;;
21639;SDS011;10981;45.462;10.974;2022-08-18T16:39:48;3.72;;;1.35;;
21639;SDS011;10981;45.462;10.974;2022-08-18T16:42:17;8.60;;;1.40;;
21639;SDS011;10981;45.462;10.974;2022-08-18T16:44:45;2.40;;;1.20;;
21639;SDS011;10981;45.462;10.974;2022-08-18T16:47:14;4.30;;;1.40;;
21639;SDS011;10981;45.462;10.974;2022-08-18T16:49:46;4.50;;;2.00;;
21639;SDS011;10981;45.462;10.974;2022-08-18T16:52:17;1.75;;;0.93;;
21639;SDS011;10981;45.462;10.974;2022-08-18T16:54:46;4.03;;;1.90;;
21639;SDS011;10981;45.462;10.974;2022-08-18T16:57:23;2.25;;;1.15;;
21639;SDS011;10981;45.462;10.974;2022-08-18T17:00:27;4.40;;;1.33;;
21639;SDS011;10981;45.462;10.974;2022-08-18T17:03:22;2.83;;;1.30;;
21639;SDS011;10981;45.462;10.974;2022-08-18T17:06:11;5.47;;;1.17;;
21639;SDS011;10981;45.462;10.974;2022-08-18T17:08:41;4.22;;;1.42;;
21639;SDS011;10981;45.462;10.974;2022-08-18T17:11:10;6.22;;;1.25;;
21639;SDS011;10981;45.462;10.974;2022-08-18T17:13:41;8.75;;;1.50;;
21639;SDS011;10981;45.462;10.974;2022-08-18T17:16:10;3.63;;;1.30;;
21639;SDS011;10981;45.462;10.974;2022-08-18T17:18:41;10.40;;;2.67;;
21639;SDS011;10981;45.462;10.974;2022-08-18T17:21:11;3.53;;;1.45;;
21639;SDS011;10981;45.462;10.974;2022-08-18T17:23:41;3.53;;;1.38;;
21639;SDS011;10981;45.462;10.974;2022-08-18T17:29:16;11.13;;;1.70;;
21639;SDS011;10981;45.462;10.974;2022-08-18T17:31:52;4.68;;;1.40;;
21639;SDS011;10981;45.462;10.974;2022-08-18T17:34:35;3.65;;;1.20;;
21639;SDS011;10981;45.462;10.974;2022-08-18T17:37:08;2.60;;;1.52;;
21639;SDS011;10981;45.462;10.974;2022-08-18T17:39:40;7.72;;;2.60;;
21639;SDS011;10981;45.462;10.974;2022-08-18T17:42:19;3.25;;;1.13;;
21639;SDS011;10981;45.462;10.974;2022-08-18T17:45:05;3.78;;;1.13;;
21639;SDS011;10981;45.462;10.974;2022-08-18T17:50:39;2.10;;;1.17;;
21639;SDS011;10981;45.462;10.974;2022-08-18T17:53:33;5.32;;;1.30;;
21639;SDS011;10981;45.462;10.974;2022-08-18T17:59:17;4.15;;;1.63;;
21639;SDS011;10981;45.462;10.974;2022-08-18T18:02:19;3.70;;;1.60;;
21639;SDS011;10981;45.462;10.974;2022-08-18T18:04:57;4.32;;;1.58;;
21639;SDS011;10981;45.462;10.974;2022-08-18T18:07:29;4.30;;;1.40;;
21639;SDS011;10981;45.462;10.974;2022-08-18T18:13:06;5.00;;;1.50;;
21639;SDS011;10981;45.462;10.974;2022-08-18T18:15:54;6.00;;;1.95;;
21639;SDS011;10981;45.462;10.974;2022-08-18T18:21:04;4.35;;;1.67;;
21639;SDS011;10981;45.462;10.974;2022-08-18T18:23:44;3.00;;;1.48;;